Terminal Aerodrome Forecast
Issued by NWS Nashville, TN

Home | Current Version | Previous Version | Text Only | Print | Product List | Glossary On
Versions: 1 2 3 4 5 6 7 8 9 10 11 12 13 14 15 16 17 18 19 20 21 22 23 24 25 26 27 28 29 30 31 32 33 34 35
000
FTUS44 KOHX 280918 AAC
TAFBNA
TAF AMD
KBNA 280918Z 2809/2906 25003KT P6SM OVC005
      TEMPO 2810/2812 5SM BR
     FM281200 00000KT 5SM BR BKN005 OVC015
     FM281400 27005KT P6SM OVC015
     FM281700 30005KT P6SM BKN045=

USA.gov is the U.S. government's official web portal to all federal, state and local government web resources and services.